createdAt,value
2023-05-10T00:02:08.197Z,15.10
2023-05-10T00:04:39.962Z,15.10
2023-05-10T00:07:11.671Z,15.10
2023-05-10T00:09:43.848Z,15.10
2023-05-10T00:12:15.678Z,15.10
2023-05-10T00:14:47.402Z,15.10
2023-05-10T00:17:19.117Z,15.10
2023-05-10T00:19:50.848Z,15.10
2023-05-10T00:22:22.654Z,15.10
2023-05-10T00:24:54.331Z,15.10
2023-05-10T00:27:26.165Z,15.00
2023-05-10T00:29:57.920Z,15.00
2023-05-10T00:32:29.701Z,15.00
2023-05-10T00:35:01.459Z,15.00
2023-05-10T00:37:33.217Z,14.90
2023-05-10T00:40:06.053Z,14.90
2023-05-10T00:42:37.828Z,14.90
2023-05-10T00:45:10.097Z,14.90
2023-05-10T00:47:42.026Z,14.90
2023-05-10T00:50:14.772Z,14.80
2023-05-10T00:52:46.651Z,14.80
2023-05-10T00:55:19.149Z,14.80
2023-05-10T00:57:51.275Z,14.80
2023-05-10T01:00:23.113Z,14.80
2023-05-10T01:02:55.523Z,14.80
2023-05-10T01:05:28.489Z,14.80
2023-05-10T01:08:00.258Z,14.80
2023-05-10T01:10:32.567Z,14.70
2023-05-10T01:13:04.575Z,14.70
2023-05-10T01:15:37.367Z,14.70
2023-05-10T01:18:09.745Z,14.70
2023-05-10T01:20:48.736Z,14.70
2023-05-10T01:23:36.793Z,14.70
2023-05-10T01:26:30.437Z,14.70
2023-05-10T01:29:33.635Z,14.70
2023-05-10T01:32:21.450Z,14.70
2023-05-10T01:35:11.786Z,14.70
2023-05-10T01:38:08.888Z,14.70
2023-05-10T01:40:48.114Z,14.70
2023-05-10T01:43:32.029Z,14.60
2023-05-10T01:46:11.885Z,14.50
2023-05-10T01:48:56.846Z,14.50
2023-05-10T01:51:35.553Z,14.50
2023-05-10T01:54:09.878Z,14.50
2023-05-10T01:56:44.761Z,14.50
2023-05-10T01:59:19.175Z,14.50
2023-05-10T02:01:52.035Z,14.50
2023-05-10T02:04:25.734Z,14.50
2023-05-10T02:06:58.309Z,14.50
2023-05-10T02:09:32.526Z,14.50
2023-05-10T02:12:06.537Z,14.50
2023-05-10T02:14:39.649Z,16.20
2023-05-10T02:17:13.064Z,14.40
2023-05-10T02:19:48.107Z,14.40
2023-05-10T02:22:21.013Z,14.40
2023-05-10T02:24:54.053Z,14.30
2023-05-10T02:27:28.948Z,14.30
2023-05-10T02:30:01.474Z,14.20
2023-05-10T02:32:35.302Z,14.20
2023-05-10T02:35:08.218Z,14.10
2023-05-10T02:37:41.187Z,14.10
2023-05-10T02:40:13.727Z,14.10
2023-05-10T02:42:48.325Z,14.00
2023-05-10T02:45:24.425Z,14.00
2023-05-10T02:47:57.316Z,14.00
2023-05-10T02:50:33.390Z,14.10
2023-05-10T02:53:12.663Z,14.00
2023-05-10T02:55:48.648Z,14.10
2023-05-10T02:58:20.450Z,14.10
2023-05-10T03:00:52.251Z,14.10
2023-05-10T03:03:24.322Z,14.00
2023-05-10T03:05:57.497Z,13.90
2023-05-10T03:08:30.669Z,13.90
2023-05-10T03:11:22.767Z,13.90
2023-05-10T03:14:17.420Z,13.80
2023-05-10T03:17:01.313Z,13.80
2023-05-10T03:19:56.601Z,13.70
2023-05-10T03:23:03.498Z,13.70
2023-05-10T03:25:35.610Z,13.70
2023-05-10T03:28:10.241Z,13.70
2023-05-10T03:30:43.863Z,13.70
2023-05-10T03:33:17.369Z,13.60
2023-05-10T03:35:51.413Z,13.60
2023-05-10T03:38:23.137Z,13.50
2023-05-10T03:40:54.887Z,13.60
2023-05-10T03:43:26.629Z,13.50
2023-05-10T03:45:58.368Z,13.50
2023-05-10T03:48:30.341Z,13.40
2023-05-10T03:51:02.109Z,13.40
2023-05-10T03:53:33.844Z,13.40
2023-05-10T03:56:05.818Z,13.30
2023-05-10T03:58:37.616Z,13.30
2023-05-10T04:01:09.488Z,13.20
2023-05-10T04:03:41.327Z,13.20
2023-05-10T04:06:13.180Z,13.20
2023-05-10T04:08:44.916Z,13.20
2023-05-10T04:11:16.660Z,13.10
2023-05-10T04:13:48.439Z,13.00
2023-05-10T04:16:20.202Z,13.20
2023-05-10T04:18:52.071Z,13.00
2023-05-10T04:21:23.781Z,13.00
2023-05-10T04:23:55.565Z,12.90
2023-05-10T04:26:27.289Z,12.90
2023-05-10T04:28:59.025Z,12.90
2023-05-10T04:31:30.747Z,12.90
2023-05-10T04:34:02.443Z,12.90
2023-05-10T04:36:36.322Z,12.90
2023-05-10T04:39:08.142Z,12.90
2023-05-10T04:41:39.862Z,12.90
2023-05-10T04:44:11.628Z,12.90
2023-05-10T04:46:43.376Z,12.80
2023-05-10T04:49:15.414Z,12.90
2023-05-10T04:51:47.478Z,12.90
2023-05-10T04:54:19.241Z,12.90
2023-05-10T04:56:51.002Z,12.90
2023-05-10T04:59:22.717Z,12.90
2023-05-10T05:01:54.489Z,12.90
2023-05-10T05:04:26.226Z,12.80
2023-05-10T05:06:58.058Z,12.80
2023-05-10T05:09:29.790Z,12.80
2023-05-10T05:12:01.529Z,12.80
2023-05-10T05:14:33.231Z,12.80
2023-05-10T05:17:04.957Z,12.70
2023-05-10T05:19:36.790Z,12.60
2023-05-10T05:22:09.614Z,12.60
2023-05-10T05:24:41.393Z,12.60
2023-05-10T05:27:13.115Z,12.60
2023-05-10T05:29:44.818Z,12.60
2023-05-10T05:32:16.529Z,12.60
2023-05-10T05:34:48.706Z,12.70
2023-05-10T05:37:22.446Z,12.60
2023-05-10T05:39:55.864Z,12.60
2023-05-10T05:42:27.636Z,12.60
2023-05-10T05:44:59.473Z,12.60
2023-05-10T05:47:31.322Z,12.60
2023-05-10T05:50:03.088Z,12.70
2023-05-10T05:52:35.034Z,12.80
2023-05-10T05:55:06.998Z,12.80
2023-05-10T05:57:38.720Z,12.80
2023-05-10T06:00:11.253Z,12.80
2023-05-10T06:02:45.662Z,12.80
2023-05-10T06:05:17.795Z,12.70
2023-05-10T06:07:49.742Z,12.80
2023-05-10T06:10:21.448Z,12.80
2023-05-10T06:12:54.104Z,12.90
2023-05-10T06:15:26.167Z,12.90
2023-05-10T06:17:57.978Z,13.00
2023-05-10T06:20:29.896Z,12.90
2023-05-10T06:23:01.635Z,12.90
2023-05-10T06:25:33.334Z,12.90
2023-05-10T06:28:05.100Z,12.90
2023-05-10T06:30:37.726Z,13.00
2023-05-10T06:33:09.649Z,13.10
2023-05-10T06:35:41.523Z,13.10
2023-05-10T06:38:13.276Z,13.10
2023-05-10T06:40:45.085Z,13.10
2023-05-10T06:43:16.821Z,13.20
2023-05-10T06:45:49.320Z,13.20
2023-05-10T06:48:21.064Z,13.20
2023-05-10T06:50:52.852Z,13.20
2023-05-10T06:53:24.631Z,13.20
2023-05-10T06:55:56.354Z,13.30
2023-05-10T06:58:28.771Z,13.30
2023-05-10T07:01:05.134Z,13.20
2023-05-10T07:03:36.925Z,13.20
2023-05-10T07:06:13.301Z,13.20
2023-05-10T07:08:50.329Z,13.20
2023-05-10T07:11:22.058Z,13.20
2023-05-10T07:13:54.093Z,13.30
2023-05-10T07:16:25.959Z,13.40
2023-05-10T07:18:57.717Z,13.40
2023-05-10T07:21:29.734Z,13.40
2023-05-10T07:24:01.916Z,13.30
2023-05-10T07:26:33.634Z,13.30
2023-05-10T07:29:07.440Z,13.30
2023-05-10T07:31:39.189Z,13.40
2023-05-10T07:34:10.984Z,13.50
2023-05-10T07:36:42.760Z,13.60
2023-05-10T07:39:21.208Z,13.70
2023-05-10T07:41:58.137Z,13.80
2023-05-10T07:44:30.049Z,14.10
2023-05-10T07:47:01.762Z,14.20
2023-05-10T07:49:33.487Z,14.30
2023-05-10T07:52:05.221Z,14.40
2023-05-10T07:54:36.954Z,14.60
2023-05-10T07:57:08.668Z,14.70
2023-05-10T07:59:40.379Z,14.80
2023-05-10T08:02:12.264Z,14.70
2023-05-10T08:04:44.097Z,14.80
2023-05-10T08:07:15.965Z,14.80
2023-05-10T08:09:47.698Z,14.90
2023-05-10T08:12:19.459Z,14.90
2023-05-10T08:14:51.226Z,14.90
2023-05-10T08:17:24.690Z,14.90
2023-05-10T08:19:56.777Z,14.80
2023-05-10T08:22:28.597Z,14.70
2023-05-10T08:25:00.350Z,14.70
2023-05-10T08:27:32.071Z,14.80
2023-05-10T08:30:04.218Z,15.00
2023-05-10T08:32:36.046Z,15.20
2023-05-10T08:35:08.119Z,15.20
2023-05-10T08:37:39.994Z,15.30
2023-05-10T08:40:12.959Z,15.40
2023-05-10T08:42:54.427Z,15.70
2023-05-10T08:45:28.032Z,15.90
2023-05-10T08:48:02.767Z,16.10
2023-05-10T08:50:39.083Z,16.20
2023-05-10T08:53:16.002Z,16.30
2023-05-10T08:55:48.275Z,16.40
2023-05-10T08:58:21.319Z,16.40
2023-05-10T09:00:53.698Z,16.40
2023-05-10T09:03:25.519Z,16.20
2023-05-10T09:05:57.574Z,16.20
2023-05-10T09:08:30.335Z,16.10
2023-05-10T09:11:02.666Z,16.10
2023-05-10T09:13:36.176Z,16.10
2023-05-10T09:16:20.439Z,16.20
2023-05-10T09:18:53.928Z,16.10
2023-05-10T09:21:26.738Z,16.30
2023-05-10T09:24:03.479Z,16.30
2023-05-10T09:26:36.629Z,16.50
2023-05-10T09:29:09.409Z,16.60
2023-05-10T09:31:49.230Z,16.60
2023-05-10T09:34:29.475Z,16.60
2023-05-10T09:37:03.648Z,16.50
2023-05-10T09:39:37.629Z,16.30
2023-05-10T09:42:10.639Z,16.10
2023-05-10T09:44:44.375Z,15.80
2023-05-10T09:47:22.081Z,15.70
2023-05-10T09:50:04.078Z,15.60
2023-05-10T09:52:48.774Z,15.60
2023-05-10T09:55:23.072Z,15.60
2023-05-10T09:58:02.802Z,15.70
2023-05-10T10:00:39.704Z,15.80
2023-05-10T10:03:30.963Z,15.90
2023-05-10T10:06:02.855Z,16.00
2023-05-10T10:08:35.081Z,16.20
2023-05-10T10:11:06.817Z,16.40
2023-05-10T10:13:38.622Z,16.70
2023-05-10T10:16:10.665Z,16.80
2023-05-10T10:18:43.565Z,16.90
2023-05-10T10:21:16.605Z,16.90
2023-05-10T10:23:48.342Z,17.00
2023-05-10T10:26:20.703Z,17.00
2023-05-10T10:29:05.011Z,16.90
2023-05-10T10:31:55.908Z,17.10
2023-05-10T10:34:29.683Z,17.30
2023-05-10T10:37:06.038Z,17.40
2023-05-10T10:39:37.907Z,17.60
2023-05-10T10:42:09.796Z,17.90
2023-05-10T10:44:42.791Z,18.10
2023-05-10T10:47:24.383Z,18.40
2023-05-10T10:49:59.010Z,18.70
2023-05-10T10:52:37.905Z,19.00
2023-05-10T10:55:13.545Z,20.00
2023-05-10T10:57:46.611Z,19.40
2023-05-10T11:00:29.589Z,19.50
2023-05-10T11:03:07.650Z,19.50
2023-05-10T11:05:50.477Z,19.40
2023-05-10T11:08:41.880Z,19.20
2023-05-10T11:11:16.040Z,18.90
2023-05-10T11:13:51.142Z,18.90
2023-05-10T11:16:25.658Z,18.90
2023-05-10T11:19:07.762Z,18.90
2023-05-10T11:21:50.084Z,18.90
2023-05-10T11:24:28.896Z,18.90
2023-05-10T11:27:00.931Z,19.00
2023-05-10T11:29:32.635Z,18.90
2023-05-10T11:32:09.065Z,18.90
2023-05-10T11:34:40.834Z,18.90
2023-05-10T11:37:12.617Z,18.80
2023-05-10T11:39:48.553Z,18.70
2023-05-10T11:42:20.338Z,18.60
2023-05-10T11:44:52.121Z,18.50
2023-05-10T11:47:24.004Z,18.40
2023-05-10T11:49:55.802Z,18.40
2023-05-10T11:52:27.559Z,18.30
2023-05-10T11:54:59.361Z,18.20
2023-05-10T11:57:32.223Z,18.30
2023-05-10T12:00:04.724Z,18.20
2023-05-10T12:02:40.108Z,18.30
2023-05-10T12:05:12.195Z,18.50
2023-05-10T12:07:44.192Z,18.70
2023-05-10T12:10:16.505Z,19.00
2023-05-10T12:12:49.126Z,19.10
2023-05-10T12:15:23.149Z,19.10
2023-05-10T12:17:55.815Z,18.90
2023-05-10T12:20:28.747Z,18.80
2023-05-10T12:23:03.012Z,18.70
2023-05-10T12:25:36.415Z,18.80
2023-05-10T12:28:10.164Z,18.50
2023-05-10T12:30:41.919Z,18.30
2023-05-10T12:33:16.103Z,18.00
2023-05-10T12:35:50.372Z,17.70
2023-05-10T12:38:35.274Z,17.60
2023-05-10T12:41:09.470Z,17.40
2023-05-10T12:43:41.716Z,17.30
2023-05-10T12:46:15.394Z,17.30
2023-05-10T12:48:51.774Z,17.20
2023-05-10T12:51:26.965Z,17.10
2023-05-10T12:53:58.676Z,16.90
2023-05-10T12:56:30.503Z,16.90
2023-05-10T12:59:02.266Z,16.80
2023-05-10T13:01:34.023Z,16.70
2023-05-10T13:04:05.939Z,16.60
2023-05-10T13:06:37.752Z,16.70
2023-05-10T13:09:09.585Z,16.70
2023-05-10T13:11:41.573Z,16.90
2023-05-10T13:14:14.346Z,17.00
2023-05-10T13:16:46.218Z,17.10
2023-05-10T13:19:18.438Z,17.20
2023-05-10T13:21:50.405Z,17.30
2023-05-10T13:24:22.707Z,17.20
2023-05-10T13:26:54.431Z,17.10
2023-05-10T13:29:26.274Z,17.00
2023-05-10T13:31:58.061Z,17.00
2023-05-10T13:34:29.842Z,17.00
2023-05-10T13:37:01.682Z,17.00
2023-05-10T13:39:35.339Z,17.00
2023-05-10T13:42:07.339Z,17.00
2023-05-10T13:44:39.759Z,17.00
2023-05-10T13:47:12.289Z,17.10
2023-05-10T13:49:44.028Z,17.10
2023-05-10T13:52:15.818Z,17.10
2023-05-10T13:54:47.607Z,17.00
2023-05-10T13:57:19.673Z,16.90
2023-05-10T13:59:51.655Z,16.80
2023-05-10T14:02:23.439Z,16.80
2023-05-10T14:04:55.201Z,16.80
2023-05-10T14:07:26.948Z,16.90
2023-05-10T14:09:58.684Z,16.90
2023-05-10T14:12:30.619Z,16.90
2023-05-10T14:15:03.129Z,16.80
2023-05-10T14:17:34.877Z,16.80
2023-05-10T14:20:07.529Z,16.70
2023-05-10T14:22:39.252Z,16.70
2023-05-10T14:25:11.174Z,16.70
2023-05-10T14:27:42.909Z,16.70
2023-05-10T14:30:15.861Z,16.80
2023-05-10T14:32:47.645Z,16.70
2023-05-10T14:35:19.965Z,16.80
2023-05-10T14:37:51.910Z,16.90
2023-05-10T14:40:23.725Z,16.80
2023-05-10T14:42:55.683Z,16.70
2023-05-10T14:45:27.477Z,17.60
2023-05-10T14:48:01.063Z,16.60
2023-05-10T14:50:36.924Z,16.50
2023-05-10T14:53:08.980Z,16.40
2023-05-10T14:55:40.852Z,16.30
2023-05-10T14:58:12.730Z,16.30
2023-05-10T15:00:44.533Z,16.20
2023-05-10T15:03:17.013Z,16.10
2023-05-10T15:05:49.312Z,16.00
2023-05-10T15:08:21.110Z,16.00
2023-05-10T15:10:53.156Z,15.90
2023-05-10T15:13:24.897Z,15.80
2023-05-10T15:15:56.668Z,15.80
2023-05-10T15:18:28.448Z,15.70
2023-05-10T15:21:00.305Z,15.70
2023-05-10T15:23:32.931Z,15.80
2023-05-10T15:26:04.693Z,15.80
2023-05-10T15:28:36.585Z,15.80
2023-05-10T15:31:08.310Z,15.70
2023-05-10T15:33:40.078Z,17.10
2023-05-10T15:36:12.370Z,15.70
2023-05-10T15:38:44.368Z,15.60
2023-05-10T15:41:16.081Z,15.60
2023-05-10T15:43:47.849Z,15.70
2023-05-10T15:46:19.684Z,15.70
2023-05-10T15:48:51.430Z,15.60
2023-05-10T15:51:23.179Z,15.40
2023-05-10T15:54:05.880Z,15.30
2023-05-10T15:56:38.832Z,15.20
2023-05-10T15:59:11.759Z,15.10
2023-05-10T16:01:43.582Z,15.00
2023-05-10T16:04:15.384Z,15.00
2023-05-10T16:06:47.101Z,15.00
2023-05-10T16:09:18.900Z,15.00
2023-05-10T16:11:50.745Z,15.00
2023-05-10T16:14:24.481Z,15.00
2023-05-10T16:16:56.355Z,15.00
2023-05-10T16:19:29.780Z,15.00
2023-05-10T16:22:02.061Z,15.00
2023-05-10T16:24:33.895Z,15.00
2023-05-10T16:27:05.647Z,14.90
2023-05-10T16:29:37.438Z,14.90
2023-05-10T16:32:09.157Z,14.90
2023-05-10T16:34:40.921Z,14.90
2023-05-10T16:37:12.700Z,14.80
2023-05-10T16:39:44.416Z,14.70
2023-05-10T16:42:16.221Z,14.70
2023-05-10T16:44:48.078Z,14.60
2023-05-10T16:47:19.839Z,14.60
2023-05-10T16:49:51.535Z,14.60
2023-05-10T16:52:23.822Z,14.60
2023-05-10T16:54:55.983Z,14.60
2023-05-10T16:57:28.026Z,14.60
2023-05-10T16:59:59.901Z,14.60
2023-05-10T17:02:31.824Z,14.50
2023-05-10T17:05:04.560Z,14.60
2023-05-10T17:07:36.293Z,14.50
2023-05-10T17:10:08.457Z,14.50
2023-05-10T17:12:40.283Z,14.40
2023-05-10T17:15:12.576Z,14.40
2023-05-10T17:17:44.630Z,14.40
2023-05-10T17:20:16.547Z,14.40
2023-05-10T17:22:48.897Z,14.40
2023-05-10T17:25:20.731Z,14.50
2023-05-10T17:27:52.506Z,14.40
2023-05-10T17:30:27.427Z,14.40
2023-05-10T17:33:02.213Z,14.40
2023-05-10T17:35:34.134Z,14.30
2023-05-10T17:38:05.860Z,14.40
2023-05-10T17:40:40.766Z,14.30
2023-05-10T17:43:12.539Z,14.30
2023-05-10T17:45:47.308Z,14.30
2023-05-10T17:48:19.066Z,14.20
2023-05-10T17:50:51.414Z,14.10
2023-05-10T17:53:23.664Z,14.10
2023-05-10T17:55:58.900Z,13.90
2023-05-10T17:58:30.722Z,13.90
2023-05-10T18:01:02.732Z,13.90
2023-05-10T18:03:35.888Z,13.80
2023-05-10T18:06:07.718Z,13.80
2023-05-10T18:08:39.478Z,13.80
2023-05-10T18:11:11.238Z,13.80
2023-05-10T18:13:42.952Z,13.80
2023-05-10T18:16:15.019Z,13.80
2023-05-10T18:18:46.786Z,13.80
2023-05-10T18:21:18.854Z,13.80
2023-05-10T18:23:50.658Z,13.80
2023-05-10T18:26:22.394Z,13.80
2023-05-10T18:28:54.106Z,13.70
2023-05-10T18:31:25.967Z,13.70
2023-05-10T18:33:57.741Z,13.70
2023-05-10T18:36:30.014Z,13.60
2023-05-10T18:39:01.758Z,13.70
2023-05-10T18:41:33.572Z,13.70
2023-05-10T18:44:05.457Z,13.60
2023-05-10T18:46:38.220Z,13.50
2023-05-10T18:49:10.111Z,13.60
2023-05-10T18:51:41.815Z,13.50
2023-05-10T18:54:14.628Z,13.50
2023-05-10T18:56:47.177Z,13.50
2023-05-10T18:59:18.964Z,13.50
2023-05-10T19:01:51.427Z,13.40
2023-05-10T19:04:23.470Z,13.40
2023-05-10T19:06:55.974Z,13.40
2023-05-10T19:09:28.746Z,13.50
2023-05-10T19:12:00.776Z,13.50
2023-05-10T19:14:32.558Z,13.50
2023-05-10T19:17:04.284Z,13.40
2023-05-10T19:19:37.745Z,13.50
2023-05-10T19:22:11.858Z,13.40
2023-05-10T19:24:45.714Z,13.30
2023-05-10T19:27:17.451Z,13.30
2023-05-10T19:29:49.256Z,13.30
2023-05-10T19:32:21.030Z,13.30
2023-05-10T19:34:52.802Z,13.20
2023-05-10T19:37:24.559Z,13.20
2023-05-10T19:39:56.339Z,13.30
2023-05-10T19:42:28.090Z,13.30
2023-05-10T19:44:59.881Z,13.30
2023-05-10T19:47:31.683Z,13.30
2023-05-10T19:50:04.201Z,13.30
2023-05-10T19:52:35.989Z,13.20
2023-05-10T19:55:08.724Z,13.20
2023-05-10T19:57:40.545Z,13.20
2023-05-10T20:00:12.861Z,13.20
2023-05-10T20:02:44.574Z,13.20
2023-05-10T20:05:16.722Z,13.20
2023-05-10T20:07:48.860Z,13.20
2023-05-10T20:10:22.003Z,13.20
2023-05-10T20:12:54.132Z,13.10
2023-05-10T20:15:25.892Z,13.10
2023-05-10T20:17:57.750Z,13.00
2023-05-10T20:20:29.543Z,13.00
2023-05-10T20:23:01.405Z,13.00
2023-05-10T20:25:33.177Z,13.00
2023-05-10T20:28:05.807Z,12.90
2023-05-10T20:30:37.586Z,12.90
2023-05-10T20:33:09.678Z,12.90
2023-05-10T20:35:42.162Z,12.90
2023-05-10T20:38:14.224Z,12.90
2023-05-10T20:40:46.565Z,12.90
2023-05-10T20:43:18.956Z,12.90
2023-05-10T20:45:50.682Z,13.00
2023-05-10T20:48:22.883Z,13.00
2023-05-10T20:50:54.577Z,13.00
2023-05-10T20:53:27.399Z,12.90
2023-05-10T20:55:59.109Z,12.90
2023-05-10T20:58:30.979Z,12.90
2023-05-10T21:01:03.605Z,12.90
2023-05-10T21:03:35.667Z,13.00
2023-05-10T21:06:07.385Z,13.00
2023-05-10T21:08:39.093Z,12.80
2023-05-10T21:11:10.891Z,14.20
2023-05-10T21:13:42.755Z,12.80
2023-05-10T21:16:14.549Z,12.80
2023-05-10T21:18:46.430Z,12.80
2023-05-10T21:21:18.219Z,12.80
2023-05-10T21:23:49.959Z,12.80
2023-05-10T21:26:22.131Z,12.80
2023-05-10T21:28:53.897Z,12.80
2023-05-10T21:31:25.840Z,12.90
2023-05-10T21:33:58.111Z,12.90
2023-05-10T21:36:30.035Z,13.80
2023-05-10T21:39:01.756Z,12.80
2023-05-10T21:41:33.464Z,12.80
2023-05-10T21:44:05.371Z,12.80
2023-05-10T21:46:37.233Z,12.80
2023-05-10T21:49:08.940Z,12.70
2023-05-10T21:51:40.708Z,12.80
2023-05-10T21:54:12.450Z,12.80
2023-05-10T21:56:44.144Z,12.70
2023-05-10T21:59:15.996Z,12.70
2023-05-10T22:01:47.836Z,12.70
2023-05-10T22:04:19.586Z,12.70
2023-05-10T22:06:51.350Z,12.70
2023-05-10T22:09:24.306Z,12.70
2023-05-10T22:11:56.116Z,12.70
2023-05-10T22:14:27.902Z,12.70
2023-05-10T22:16:59.858Z,12.60
2023-05-10T22:19:31.624Z,12.50
2023-05-10T22:22:03.518Z,12.60
2023-05-10T22:24:35.242Z,12.60
2023-05-10T22:27:07.062Z,12.60
2023-05-10T22:29:38.833Z,11.80
2023-05-10T22:32:10.545Z,12.60
2023-05-10T22:34:43.298Z,12.60
2023-05-10T22:37:17.728Z,12.70
2023-05-10T22:39:49.875Z,12.70
2023-05-10T22:42:21.592Z,12.70
2023-05-10T22:44:53.442Z,12.70
2023-05-10T22:47:25.563Z,12.60
2023-05-10T22:49:58.238Z,12.70
2023-05-10T22:52:30.104Z,12.70
2023-05-10T22:55:02.010Z,12.80
2023-05-10T22:57:34.140Z,12.70
2023-05-10T23:00:06.723Z,12.70
2023-05-10T23:02:38.477Z,12.70
2023-05-10T23:05:10.476Z,12.70
2023-05-10T23:07:42.312Z,12.70
2023-05-10T23:10:14.380Z,12.70
2023-05-10T23:12:46.067Z,12.70
2023-05-10T23:15:17.822Z,12.70
2023-05-10T23:17:49.582Z,12.70
2023-05-10T23:20:21.660Z,12.70
2023-05-10T23:22:54.122Z,12.60
2023-05-10T23:25:25.873Z,12.60
2023-05-10T23:27:57.735Z,12.60
2023-05-10T23:30:31.389Z,12.60
2023-05-10T23:33:03.480Z,12.60
2023-05-10T23:35:35.288Z,12.60
2023-05-10T23:38:07.104Z,12.60
2023-05-10T23:40:38.889Z,12.60
2023-05-10T23:43:10.695Z,12.70
2023-05-10T23:45:42.666Z,12.60
2023-05-10T23:48:14.423Z,12.60
2023-05-10T23:50:46.154Z,12.60
2023-05-10T23:53:17.973Z,12.70
2023-05-10T23:55:50.120Z,12.60
2023-05-10T23:58:22.208Z,12.60
